Time,TemperatureF,DewpointF,PressureIn,WindDirection,WindDirectionDegrees,WindSpeedMPH,WindSpeedGustMPH,Humidity,HourlyPrecipIn,Conditions,Clouds,dailyrainin,SoftwareType,DateUTC
2013-09-05 00:12:00,66.0,55.0,29.92,SSE,155,0.0,-999.0,67,-99.99,,,-99.99,,2013-09-05 07:12:00,
2013-09-05 00:22:00,66.0,56.0,29.92,SSE,155,0.0,-999.0,69,-99.99,,,-99.99,,2013-09-05 07:22:00,
2013-09-05 00:52:00,65.0,56.0,29.92,ESE,123,0.0,-999.0,72,-99.99,,,-99.99,,2013-09-05 07:52:00,
2013-09-05 01:12:00,65.0,56.0,29.91,ESE,123,0.0,-999.0,73,-99.99,,,-99.99,,2013-09-05 08:12:00,
2013-09-05 01:21:00,64.0,56.0,29.91,ESE,123,0.0,-999.0,74,-99.99,,,-99.99,,2013-09-05 08:21:00,
2013-09-05 01:52:00,64.0,56.0,29.91,ESE,123,0.0,-999.0,76,-99.99,,,-99.99,,2013-09-05 08:52:00,
2013-09-05 02:11:00,64.0,56.0,29.90,SE,125,0.0,-999.0,76,-99.99,,,-99.99,,2013-09-05 09:11:00,
2013-09-05 02:22:00,63.0,56.0,29.91,South,174,0.0,-999.0,77,-99.99,,,-99.99,,2013-09-05 09:22:00,
2013-09-05 02:53:00,63.0,56.0,29.90,ESE,123,0.0,-999.0,78,-99.99,,,-99.99,,2013-09-05 09:53:00,
2013-09-05 03:12:00,63.0,56.0,29.91,ESE,123,0.0,-999.0,78,-99.99,,,-99.99,,2013-09-05 10:12:00,
2013-09-05 03:23:00,63.0,56.0,29.91,ESE,123,0.0,-999.0,78,-99.99,,,-99.99,,2013-09-05 10:23:00,
2013-09-05 03:53:00,62.0,55.0,29.91,ESE,123,0.0,-999.0,79,-99.99,,,-99.99,,2013-09-05 10:53:00,
2013-09-05 04:11:00,62.0,56.0,29.91,ESE,123,0.0,-999.0,80,-99.99,,,-99.99,,2013-09-05 11:11:00,
2013-09-05 04:21:00,62.0,56.0,29.91,ESE,104,0.0,-999.0,81,-99.99,,,-99.99,,2013-09-05 11:21:00,
2013-09-05 04:42:00,61.0,55.0,29.91,ESE,119,0.0,-999.0,81,-99.99,,,-99.99,,2013-09-05 11:42:00,
2013-09-05 04:52:00,61.0,55.0,29.91,ESE,119,0.0,-999.0,82,-99.99,,,-99.99,,2013-09-05 11:52:00,
2013-09-05 05:12:00,61.0,56.0,29.91,ESE,119,0.0,-999.0,83,-99.99,,,-99.99,,2013-09-05 12:12:00,
2013-09-05 05:21:00,61.0,56.0,29.91,ESE,119,0.0,-999.0,83,-99.99,,,-99.99,,2013-09-05 12:21:00,
2013-09-05 05:41:00,60.0,55.0,29.92,ESE,119,0.0,-999.0,84,-99.99,,,-99.99,,2013-09-05 12:41:00,
2013-09-05 05:52:00,60.0,55.0,29.92,SSE,147,0.0,-999.0,84,-99.99,,,-99.99,,2013-09-05 12:52:00,
2013-09-05 06:12:00,60.0,55.0,29.92,ESE,121,0.0,-999.0,84,-99.99,,,-99.99,,2013-09-05 13:12:00,
2013-09-05 06:21:00,60.0,55.0,29.93,ESE,122,0.0,-999.0,84,-99.99,,,-99.99,,2013-09-05 13:21:00,
2013-09-05 06:53:00,61.0,56.0,29.93,SE,126,0.0,-999.0,84,-99.99,,,-99.99,,2013-09-05 13:53:00,
2013-09-05 07:12:00,61.0,56.0,29.93,SE,126,0.0,-999.0,84,-99.99,,,-99.99,,2013-09-05 14:12:00,
2013-09-05 07:21:00,61.0,56.0,29.94,SE,126,0.0,-999.0,84,-99.99,,,-99.99,,2013-09-05 14:21:00,
2013-09-05 07:42:00,61.0,56.0,29.94,ESE,119,0.0,-999.0,84,-99.99,,,-99.99,,2013-09-05 14:42:00,
2013-09-05 07:52:00,62.0,56.0,29.94,South,180,0.0,-999.0,82,-99.99,,,-99.99,,2013-09-05 14:52:00,
2013-09-05 08:22:00,64.0,57.0,29.95,South,180,0.0,-999.0,78,-99.99,,,-99.99,,2013-09-05 15:22:00,
2013-09-05 08:54:00,65.0,58.0,29.96,NE,50,0.0,-999.0,77,-99.99,,,-99.99,,2013-09-05 15:54:00,
2013-09-05 09:13:00,66.0,58.0,29.96,SE,146,0.0,-999.0,75,-99.99,,,-99.99,,2013-09-05 16:13:00,
2013-09-05 09:24:00,66.0,58.0,29.96,South,179,0.0,-999.0,75,-99.99,,,-99.99,,2013-09-05 16:24:00,
2013-09-05 09:32:00,66.0,58.0,29.96,South,179,0.0,-999.0,75,-99.99,,,-99.99,,2013-09-05 16:32:00,
2013-09-05 09:43:00,66.0,58.0,29.96,South,179,0.0,-999.0,75,-99.99,,,-99.99,,2013-09-05 16:43:00,
2013-09-05 09:54:00,68.0,59.0,29.96,SSE,155,0.0,-999.0,72,-99.99,,,-99.99,,2013-09-05 16:54:00,
2013-09-05 10:12:00,69.0,58.0,29.96,SSE,152,0.0,-999.0,69,-99.99,,,-99.99,,2013-09-05 17:12:00,
2013-09-05 10:23:00,70.0,59.0,29.96,SE,140,1.0,-999.0,67,-99.99,,,-99.99,,2013-09-05 17:23:00,
2013-09-05 10:43:00,71.0,59.0,29.96,SE,142,0.0,-999.0,66,-99.99,,,-99.99,,2013-09-05 17:43:00,
2013-09-05 10:52:00,72.0,60.0,29.96,SE,131,0.0,-999.0,65,-99.99,,,-99.99,,2013-09-05 17:52:00,
2013-09-05 11:12:00,73.0,59.0,29.96,SE,126,0.0,-999.0,62,-99.99,,,-99.99,,2013-09-05 18:12:00,
2013-09-05 11:21:00,74.0,59.0,29.96,ESE,108,1.0,-999.0,60,-99.99,,,-99.99,,2013-09-05 18:21:00,
2013-09-05 11:52:00,75.0,59.0,29.96,SE,134,0.0,-999.0,57,-99.99,,,-99.99,,2013-09-05 18:52:00,
2013-09-05 12:11:00,76.0,60.0,29.96,South,177,0.0,-999.0,57,-99.99,,,-99.99,,2013-09-05 19:11:00,
2013-09-05 12:21:00,76.0,58.0,29.96,SE,129,0.0,-999.0,54,-99.99,,,-99.99,,2013-09-05 19:21:00,
2013-09-05 12:42:00,77.0,59.0,29.96,East,83,0.0,-999.0,54,-99.99,,,-99.99,,2013-09-05 19:42:00,
2013-09-05 12:52:00,77.0,59.0,29.96,East,83,0.0,-999.0,54,-99.99,,,-99.99,,2013-09-05 19:52:00,
2013-09-05 13:11:00,78.0,58.0,29.96,SE,146,0.0,-999.0,51,-99.99,,,-99.99,,2013-09-05 20:11:00,
2013-09-05 13:22:00,79.0,58.0,29.95,NE,40,0.0,-999.0,49,-99.99,,,-99.99,,2013-09-05 20:22:00,
2013-09-05 13:52:00,80.0,58.0,29.95,SE,125,0.0,-999.0,47,-99.99,,,-99.99,,2013-09-05 20:52:00,
2013-09-05 14:21:00,81.0,56.0,29.94,NW,313,1.0,-999.0,43,-99.99,,,-99.99,,2013-09-05 21:21:00,
2013-09-05 14:53:00,82.0,56.0,29.93,WNW,290,0.0,-999.0,41,-99.99,,,-99.99,,2013-09-05 21:53:00,
2013-09-05 15:13:00,82.0,56.0,29.92,West,281,0.0,-999.0,41,-99.99,,,-99.99,,2013-09-05 22:13:00,
2013-09-05 15:24:00,83.0,55.0,29.92,West,263,0.0,-999.0,38,-99.99,,,-99.99,,2013-09-05 22:24:00,
2013-09-05 15:53:00,84.0,52.0,29.91,SSW,210,0.0,-999.0,33,-99.99,,,-99.99,,2013-09-05 22:53:00,
2013-09-05 16:12:00,85.0,55.0,29.91,East,82,0.0,-999.0,36,-99.99,,,-99.99,,2013-09-05 23:12:00,
2013-09-05 16:22:00,85.0,52.0,29.90,South,173,0.0,-999.0,32,-99.99,,,-99.99,,2013-09-05 23:22:00,
2013-09-05 16:53:00,85.0,51.0,29.89,West,281,0.0,-999.0,31,-99.99,,,-99.99,,2013-09-05 23:53:00,
2013-09-05 17:12:00,86.0,51.0,29.89,WSW,237,0.0,-999.0,30,-99.99,,,-99.99,,2013-09-06 00:12:00,
2013-09-05 17:22:00,86.0,51.0,29.88,West,267,0.0,-999.0,30,-99.99,,,-99.99,,2013-09-06 00:22:00,
2013-09-05 17:42:00,86.0,51.0,29.88,West,267,0.0,-999.0,30,-99.99,,,-99.99,,2013-09-06 00:42:00,
2013-09-05 17:52:00,86.0,51.0,29.88,West,267,0.0,-999.0,30,-99.99,,,-99.99,,2013-09-06 00:52:00,
2013-09-05 18:11:00,86.0,50.0,29.87,West,267,0.0,-999.0,29,-99.99,,,-99.99,,2013-09-06 01:11:00,
2013-09-05 18:21:00,85.0,50.0,29.87,West,271,0.0,-999.0,30,-99.99,,,-99.99,,2013-09-06 01:21:00,
2013-09-05 18:42:00,85.0,53.0,29.87,West,263,0.0,-999.0,33,-99.99,,,-99.99,,2013-09-06 01:42:00,
2013-09-05 18:52:00,84.0,53.0,29.87,NW,304,0.0,-999.0,34,-99.99,,,-99.99,,2013-09-06 01:52:00,
2013-09-05 19:11:00,83.0,52.0,29.87,WNW,295,0.0,-999.0,35,-99.99,,,-99.99,,2013-09-06 02:11:00,
2013-09-05 19:22:00,82.0,54.0,29.87,WNW,293,0.0,-999.0,38,-99.99,,,-99.99,,2013-09-06 02:22:00,
2013-09-05 19:42:00,81.0,56.0,29.88,WNW,293,0.0,-999.0,42,-99.99,,,-99.99,,2013-09-06 02:42:00,
2013-09-05 19:52:00,80.0,55.0,29.88,WNW,293,0.0,-999.0,43,-99.99,,,-99.99,,2013-09-06 02:52:00,
2013-09-05 20:22:00,78.0,57.0,29.88,WNW,294,0.0,-999.0,48,-99.99,,,-99.99,,2013-09-06 03:22:00,
2013-09-05 20:55:00,75.0,56.0,29.89,WNW,294,0.0,-999.0,51,-99.99,,,-99.99,,2013-09-06 03:55:00,
2013-09-05 21:13:00,74.0,56.0,29.89,WNW,294,0.0,-999.0,53,-99.99,,,-99.99,,2013-09-06 04:13:00,
2013-09-05 21:23:00,73.0,56.0,29.90,WNW,294,0.0,-999.0,55,-99.99,,,-99.99,,2013-09-06 04:23:00,
2013-09-05 21:54:00,72.0,56.0,29.91,WNW,294,0.0,-999.0,58,-99.99,,,-99.99,,2013-09-06 04:54:00,
2013-09-05 22:12:00,71.0,56.0,29.91,WNW,294,0.0,-999.0,59,-99.99,,,-99.99,,2013-09-06 05:12:00,
2013-09-05 22:23:00,71.0,57.0,29.92,WNW,294,0.0,-999.0,61,-99.99,,,-99.99,,2013-09-06 05:23:00,
2013-09-05 22:52:00,69.0,56.0,29.93,WNW,294,0.0,-999.0,63,-99.99,,,-99.99,,2013-09-06 05:52:00,
2013-09-05 23:11:00,69.0,57.0,29.93,WNW,294,0.0,-999.0,65,-99.99,,,-99.99,,2013-09-06 06:11:00,
2013-09-05 23:21:00,68.0,56.0,29.93,WNW,294,0.0,-999.0,66,-99.99,,,-99.99,,2013-09-06 06:21:00,
2013-09-05 23:52:00,67.0,56.0,29.94,WNW,294,0.0,-999.0,68,-99.99,,,-99.99,,2013-09-06 06:52:00,